Tiempo atmosférico en la estación meteorológica de Vigo, Pontevedra (120 m.)



Fecha
DESCASC
Temp. máxima en grados centígrados (hora)
DESCASC
Temp. mínima en grados centígrados (hora)
DESCASC
Temp. media en grados centígrados
DESCASC
Racha de viento máxima en m/sg (hora)
DESCASC
Velocidad máxima media en intervalos de 10 minutos(hora)
DESCASC
Precipitaciones diarias en mm
DESCASC
Precipitaciones de 00:00 a 06:00 en mm
DESCASC
Precipitaciones de 06:00 a 12:00 en mm
DESCASC
Precipitaciones de 12:00 a 18:00 en mm
DESCASC
Precipitaciones de 18:00 a 24:00 en mm
DESCASC
29-10-2020 16.8 (14:00) 10.4 (07:30) 13.6 3.61 (16:50) 1.39 (10:00) 0 0 0 0 0
28-10-2020 17.6 (15:40) 11.5 (06:30) 14.6 4.17 (01:30) 1.39 (12:40) 2.6 2.2 0 0.4 0
27-10-2020 16 (19:00) 12.2 (00:00) 14.1 9.72 (19:30) 3.89 (18:20) 4.6 0 0.2 3.2 1.2
26-10-2020 15.6 (15:10) 7.7 (00:00) 11.7 8.06 (16:30) 3.61 (01:20) 7 5.2 0.8 1 0
25-10-2020 16.2 (00:00) 9.3 (00:00) 12.8 13.61 (01:20) 6.11 (02:00) 48.8 40.2 3.4 1.6 3.6
24-10-2020 18 (16:50) 14 (00:00) 16 12.5 (23:10) 6.11 (23:40) 2.2 0 0 0.4 1.8
23-10-2020 17.9 (15:30) 11.2 (00:00) 14.5 5.28 (15:30) 2.22 (23:59) 7 6.4 0.6 0 0
22-10-2020 18.8 (14:40) 12.4 (00:00) 15.6 7.22 (16:00) 2.78 (15:40) 2 0 0 0.4 1.6
21-10-2020 19.3 (16:10) 13.3 (00:00) 16.3 8.06 (15:50) 2.78 (13:30) 15 13.6 1.4 0 0
20-10-2020 17.9 (12:30) 13.7 (00:00) 15.8 8.06 (11:50) 3.33 (11:50) 3.4 0 0 0.8 2.6
19-10-2020 20.1 (12:10) 14.9 (00:00) 17.5 13.61 (11:30) 6.11 (17:40) 15.8 0 0 15.4 0.4
18-10-2020 20.9 (14:10) 14 (00:00) 17.4 3.89 (13:10) 1.94 (14:00) 0 0 0 0 0
17-10-2020 19 (17:10) 10.8 (00:00) 14.9 4.44 (11:00) 1.67 (14:40) 0 0 0 0 0
16-10-2020 17.5 (15:30) 9 (00:00) 13.3 4.72 (16:10) 1.94 (15:40) 0 0 0 0 0
15-10-2020 17.6 (15:00) 9.2 (00:00) 13.4 6.94 (15:30) 2.78 (15:30) 0 0 0 0 0
14-10-2020 16.9 (15:20) 9.5 (00:00) 13.2 4.72 (15:50) 1.94 (00:10) 0 0 0 0 0
13-10-2020 18.1 (13:50) 12.8 (00:00) 15.5 8.06 (14:10) 4.72 (14:20) 0.8 0.4 0.4 0 0
12-10-2020 19.7 (14:10) 10.3 (00:00) 15 7.22 (02:30) 3.61 (14:50) 0 0 0 0 0
11-10-2020 20.5 (16:00) 11.6 (00:00) 16.1 11.11 (20:20) 3.61 (19:50) 0 0 0 0 0
10-10-2020 21.6 (15:00) 14.1 (00:00) 17.9 10 (17:50) 4.44 (20:10) 0 0 0 0 0
09-10-2020 22.1 (16:10) 12.6 (00:00) 17.4 4.72 (17:00) 1.94 (15:00) 0 0 0 0 0
08-10-2020 20.8 (16:50) 13.2 (00:00) 17 4.72 (17:40) 1.94 (14:30) 0 0 0 0 0
07-10-2020 21.6 (15:40) 14.9 (00:00) 18.3 5 (17:30) 1.67 (14:40) 6.2 6 0.2 0 0
06-10-2020 19.4 (15:40) 16 (00:00) 17.7 5 (14:20) 1.67 (15:50) 1.4 1 0 0.4 0
05-10-2020 16.8 (14:30) 13 (00:00) 14.9 3.06 (16:10) 1.39 (16:20) 2.2 0 1.4 0.6 0.2
04-10-2020 16 (16:20) 13.7 (00:00) 14.8 10 (14:10) 3.61 (14:10) 4.4 1.8 0.4 2.2 0
03-10-2020 17.8 (14:30) 10.2 (00:00) 14 6.67 (17:40) 2.5 (15:50) 0.6 0.4 0 0.2 0
02-10-2020 16.8 (00:50) 11.3 (00:00) 14 13.61 (17:40) 6.11 (17:40) 10 5.8 2.2 0.2 1.8
01-10-2020 19.5 (14:40) 13.2 (08:40) 16.3 13.06 (23:50) 5 (23:50) 6.4 2 0 0 4.4

Gráficas

Temp. máximas Temp. mínimas Temp. medias Precipitaciones Rachas de viento máximas Velocidades máximas media en intervalos de 10 minutos

Datos horarios

Fecha y hora oficial Temperatura (ºC) Velocidad del viento (km/h) Dirección del viento Racha (km/h) Dirección de racha Precipitación (mm) Presión (hPa) Tendencia (hPa) Humedad (%)
2020-10-30 23:00:00 16.3 6 Sur 15 Sur 0 -- -- 82
2020-10-30 22:00:00 15.7 6 Sudoeste 12 Sur 0 -- -- 85
2020-10-30 21:00:00 14.8 0 Calma 8 Nordeste 0 -- -- 89
2020-10-30 20:00:00 15.3 2 Nordeste 9 Nordeste 0 -- -- 89
2020-10-30 19:00:00 16 0 Calma 8 Oeste 0 -- -- 86
2020-10-30 18:00:00 17.4 0 Calma 11 Sur 0 -- -- 82
2020-10-30 17:00:00 18.7 4 Oeste 14 Sur 0 -- -- 75
2020-10-30 16:00:00 19.2 3 Nordeste 10 Nordeste 0 -- -- 72
2020-10-30 15:00:00 18.4 5 Nordeste 9 Nordeste 0 -- -- 74
2020-10-30 14:00:00 17.5 4 Norte 12 Noroeste 0 -- -- 77
2020-10-30 13:00:00 17.4 7 Oeste 18 Oeste 0 -- -- 77
2020-10-30 12:00:00 18.5 0 Calma 6 Nordeste 0 -- -- 74
2020-10-30 11:00:00 16.5 3 Nordeste 8 Nordeste 0 -- -- 79
2020-10-30 10:00:00 14.7 4 Este 8 Este 0 -- -- 83
2020-10-30 09:00:00 12.2 3 Nordeste 10 Este 0 -- -- 92
2020-10-30 08:00:00 12 4 Este 15 Este 0 -- -- 90
2020-10-30 07:00:00 12 4 Sudeste 6 Sudeste 0 -- -- 92
2020-10-30 06:00:00 12.2 2 Este 6 Este 0 -- -- 92
2020-10-30 05:00:00 12.3 3 Sudeste 8 Sudeste 0 -- -- 91
2020-10-30 04:00:00 13.1 0 Calma 5 Sudeste 0 -- -- 88
2020-10-30 03:00:00 13.2 0 Calma 7 Este 0 -- -- 89
2020-10-30 02:00:00 13 2 Este 5 Este 0 -- -- 88
2020-10-30 01:00:00 12.9 2 Este 5 Este 0 -- -- 89
2020-10-30 00:00:00 12.6 2 Sudeste 4 Sudeste 0 -- -- 90
2020-10-29 23:00:00 12.2 0 Calma 4 Sudeste 0 -- -- 92
2020-10-29 22:00:00 11.6 0 Calma 3 Sudeste 0 -- -- 95
2020-10-29 21:00:00 11.8 0 Calma 3 Sur 0 -- -- 92
2020-10-29 20:00:00 12.2 2 Este 4 Este 0 -- -- 90
2020-10-29 19:00:00 13.3 0 Calma 3 Sudeste 0 -- -- 82
2020-10-29 18:00:00 14.8 0 Calma 6 Oeste 0 -- -- 76
2020-10-29 17:00:00 15.6 3 Oeste 13 Oeste 0 -- -- 70
2020-10-29 16:00:00 16.5 5 Oeste 10 Oeste 0 -- -- 69
2020-10-29 15:00:00 16.3 3 Noroeste 10 Oeste 0 -- -- 73
2020-10-29 14:00:00 16.8 5 Oeste 9 Oeste 0 -- -- 67
2020-10-29 13:00:00 15.7 0 Calma 5 Nordeste 0 -- -- 75
2020-10-29 12:00:00 15.5 4 Nordeste 10 Este 0 -- -- 78
2020-10-29 11:00:00 15.4 4 Este 10 Este 0 -- -- 77
2020-10-29 10:00:00 13.1 5 Este 11 Este 0 -- -- 85
2020-10-29 09:00:00 11 3 Sudeste 9 Este 0 -- -- 92
2020-10-29 08:00:00 10.4 4 Este 10 Este 0 -- -- 93
2020-10-29 07:00:00 10.5 3 Este 6 Este 0 -- -- 95
2020-10-29 06:00:00 11 3 Sudeste 7 Este 0 -- -- 97
2020-10-29 05:00:00 11.3 0 Calma 8 Sudeste 0 -- -- 97
2020-10-29 04:00:00 11.5 2 Este 6 Sur 0 -- -- 97
2020-10-29 03:00:00 11.3 3 Sudeste 8 Sudeste 0 -- -- 97
2020-10-29 02:00:00 11.6 3 Sudeste 5 Sudeste 0 -- -- 96
2020-10-29 01:00:00 11.9 2 Sudeste 6 Sudeste 0 -- -- 96
2020-10-29 00:00:00 12.4 3 Sudeste 5 Sudeste 0 -- -- 95
2020-10-28 23:00:00 13.2 2 Sudeste 4 Sudeste 0 -- -- 95
2020-10-28 22:00:00 13.8 0 Calma 3 Nordeste 0 -- -- 93
2020-10-28 21:00:00 14.2 0 Calma 3 Nordeste 0 -- -- 92
2020-10-28 20:00:00 14.6 0 Calma 8 Sudoeste 0 -- -- 88
2020-10-28 19:00:00 15 2 Sudoeste 8 Sudoeste 0 -- -- 87
2020-10-28 18:00:00 15.5 3 Sudoeste 12 Sudoeste 0 -- -- 84
2020-10-28 17:00:00 16.3 5 Sudoeste 13 Sudoeste 0 -- -- 78
2020-10-28 16:00:00 17.3 4 Oeste 12 Noroeste 0 -- -- 73
2020-10-28 15:00:00 16.2 4 Sudeste 10 Sudeste 0 -- -- 81
2020-10-28 14:00:00 14.8 4 Sur 12 Sur 0.2 -- -- 93
2020-10-28 13:00:00 14.3 3 Sudoeste 15 Oeste 0.2 -- -- 92
2020-10-28 12:00:00 16.7 4 Sudoeste 9 Oeste 0 -- -- 78
2020-10-28 11:00:00 15.9 2 Sudoeste 9 Sudoeste 0 -- -- 89
2020-10-28 10:00:00 13.8 0 Calma 5 Sudeste 0 -- -- 97
2020-10-28 09:00:00 12.3 2 Sudeste 6 Sur 0 -- -- 100
2020-10-28 08:00:00 11.9 3 Sudeste 6 Sudeste 0 -- -- 100
2020-10-28 07:00:00 11.6 2 Sudeste 5 Sudeste 0 -- -- 100
2020-10-28 06:00:00 11.6 0 Calma 6 Sudeste 0 -- -- 100
2020-10-28 05:00:00 12.1 2 Sudeste 5 Nordeste 0.2 -- -- 100
2020-10-28 04:00:00 12.2 2 Sudeste 8 Sudeste 0 -- -- 100
2020-10-28 03:00:00 13 0 Calma 9 Sudoeste 0.2 -- -- 100
2020-10-28 02:00:00 13.4 2 Sudoeste 15 Noroeste 1.8 -- -- 100
2020-10-28 01:00:00 13.5 0 Calma 4 Sur 0 -- -- 100
2020-10-28 00:00:00 13.4 0 Calma 5 Sudeste 0 -- -- 100
2020-10-27 23:00:00 13.6 0 Calma 2 Sudeste 0 -- -- 100
2020-10-27 22:00:00 14 0 Calma 5 Sudeste 0.2 -- -- 100
2020-10-27 21:00:00 14.2 0 Calma 7 Sudoeste 0.2 -- -- 100
2020-10-27 20:00:00 14.3 2 Sudoeste 35 Oeste 0.8 -- -- 99
2020-10-27 19:00:00 16 13 Sudoeste 27 Sur 0 -- -- 98
2020-10-27 18:00:00 15.4 11 Sudoeste 25 Sudoeste 0.2 -- -- 97
2020-10-27 17:00:00 15.5 13 Sudoeste 31 Sur 0 -- -- 96
2020-10-27 16:00:00 15.3 8 Sudoeste 22 Sudoeste 0.2 -- -- 97
2020-10-27 15:00:00 14.8 6 Sur 17 Sudeste 0.8 -- -- 98
2020-10-27 14:00:00 14.5 6 Sudoeste 19 Sudoeste 1.8 -- -- 98
2020-10-27 13:00:00 14.5 7 Sur 22 Sur 0.2 -- -- 96
2020-10-27 12:00:00 14.4 12 Sur 28 Sudoeste 0 -- -- 93
2020-10-27 11:00:00 13.8 12 Sur 21 Sur 0 -- -- 95
2020-10-27 10:00:00 13.4 8 Sur 22 Sur 0.2 -- -- 96
2020-10-27 09:00:00 13.6 9 Sur 25 Sur 0 -- -- 91
2020-10-27 08:00:00 13 10 Sur 19 Sudoeste 0 -- -- 93
2020-10-27 07:00:00 12.8 8 Sur 19 Sur 0 -- -- 92
2020-10-27 06:00:00 12.7 7 Sur 16 Sur 0 -- -- 91
2020-10-27 05:00:00 12.8 7 Sur 19 Sur 0 -- -- 87
2020-10-27 04:00:00 12.4 6 Sur 16 Sur 0 -- -- 90
2020-10-27 03:00:00 12.4 6 Sur 11 Sur 0 -- -- 90
2020-10-27 02:00:00 12.3 5 Sur 12 Sur 0 -- -- 91
2020-10-27 01:00:00 12.7 6 Sudoeste 16 Sur 0 -- -- 86
2020-10-27 00:00:00 12.2 4 Sudoeste 9 Sudoeste 0 -- -- 88
2020-10-26 23:00:00 12.1 6 Sudoeste 13 Sudoeste 0 -- -- 90
2020-10-26 22:00:00 12.1 4 Sur 8 Sudoeste 0 -- -- 89
2020-10-26 21:00:00 11.5 4 Sudoeste 6 Sudoeste 0 -- -- 94
2020-10-26 20:00:00 11.7 3 Sur 5 Sur 0 -- -- 95
2020-10-26 19:00:00 11.8 0 Calma 6 Sudoeste 0 -- -- 95
2020-10-26 18:00:00 12.5 3 Sudoeste 9 Sur 0 -- -- 90
2020-10-26 17:00:00 12.7 3 Sudoeste 29 Oeste 1 -- -- 91
2020-10-26 16:00:00 14.6 5 Sudoeste 18 Sudoeste 0 -- -- 80
2020-10-26 15:00:00 15.4 7 Sudoeste 19 Oeste 0 -- -- 77
2020-10-26 14:00:00 14.6 4 Sudoeste 13 Oeste 0 -- -- 78
2020-10-26 13:00:00 14.5 4 Noroeste 12 Noroeste 0 -- -- 83
2020-10-26 12:00:00 13.2 2 Sudoeste 7 Sudoeste 0 -- -- 86
2020-10-26 11:00:00 11.3 3 Nordeste 9 Sudeste 0.4 -- -- 94
2020-10-26 10:00:00 9.7 4 Este 10 Este 0 -- -- 99
2020-10-26 09:00:00 8.4 2 Este 10 Este 0.2 -- -- 100
2020-10-26 08:00:00 7.8 3 Este 8 Este 0 -- -- 100
2020-10-26 07:00:00 7.9 2 Sudeste 8 Sudeste 0.2 -- -- 100
2020-10-26 06:00:00 8 3 Sudeste 12 Nordeste 1 -- -- 100
2020-10-26 05:00:00 7.8 2 Nordeste 9 Este 0 -- -- 99
2020-10-26 04:00:00 7.8 0 Calma 7 Nordeste 0 -- -- 99
2020-10-26 03:00:00 8.3 3 Este 7 Este 0 -- -- 98
2020-10-26 02:00:00 8.5 3 Sur 28 Norte 1.8 -- -- 96
2020-10-26 01:00:00 9.2 3 Este 20 Nordeste 2.4 -- -- 94
2020-10-26 00:00:00 9.3 0 Calma 8 Sudeste 0 -- -- 97
2020-10-25 23:00:00 9.4 3 Sur 9 Sudeste 0 -- -- 97
2020-10-25 22:00:00 9.9 4 Sur 18 Sudoeste 1.6 -- -- 96
2020-10-25 21:00:00 10.1 8 Norte 22 Oeste 0.2 -- -- 89
2020-10-25 20:00:00 10.1 3 Sur 12 Sur 1.6 -- -- 93
2020-10-25 19:00:00 10.6 6 Sudoeste 33 Oeste 0.2 -- -- 78
2020-10-25 18:00:00 12.9 8 Sudoeste 21 Sudoeste 0 -- -- 81
2020-10-25 17:00:00 12.8 2 Sudeste 9 Oeste 0 -- -- 78
2020-10-25 16:00:00 12.4 8 Norte 28 Oeste 0 -- -- 77
2020-10-25 15:00:00 13.8 8 Sudoeste 22 Sudoeste 0 -- -- 80
2020-10-25 14:00:00 13.8 7 Sudoeste 18 Sudoeste 0.2 -- -- 87
2020-10-25 13:00:00 11.2 4 Sudoeste 21 Oeste 1.4 -- -- 94
2020-10-25 12:00:00 13.6 3 Noroeste 14 Norte 0 -- -- 93
2020-10-25 11:00:00 13.8 5 Sudoeste 13 Sudoeste 0 -- -- 91
2020-10-25 10:00:00 12.8 5 Sur 20 Sudoeste 1.6 -- -- 97
2020-10-25 09:00:00 13.6 6 Sudoeste 21 Oeste 0.8 -- -- 98
2020-10-25 08:00:00 13.7 7 Sudoeste 15 Sudoeste 0.6 -- -- 100
2020-10-25 07:00:00 13.4 6 Sudoeste 17 Sudoeste 0.4 -- -- 100
2020-10-25 06:00:00 13.5 8 Sudoeste 25 Sudoeste 4 -- -- 100
2020-10-25 05:00:00 14 10 Sudoeste 25 Sudoeste 1.6 -- -- 100
2020-10-25 04:00:00 14.1 5 Sudoeste 35 Sudoeste 6 -- -- 100
2020-10-25 03:00:00 14.5 14 Sudoeste 48 Sur 16.8 -- -- 100
2020-10-25 02:00:00 16 19 Sudoeste 42 Sudoeste 6.6 -- -- 98
2020-10-25 01:00:00 15.9 18 Sudoeste 37 Sudoeste 3.2 -- -- 96
2020-10-25 00:00:00 16.2 20 Sudoeste 45 Sudoeste 1.4 -- -- 95
2020-10-24 23:00:00 17 19 Sudoeste 37 Sudoeste 0 -- -- 86
2020-10-24 22:00:00 16.7 18 Sudoeste 35 Sudoeste 0 -- -- 87
2020-10-24 21:00:00 16.5 18 Sudoeste 42 Sudoeste 0.2 -- -- 89
2020-10-24 20:00:00 16.1 16 Sudoeste 36 Sur 0.2 -- -- 92
2020-10-24 19:00:00 16.6 19 Sudoeste 34 Sur 0 -- -- 85
2020-10-24 18:00:00 17.4 17 Sudoeste 38 Sudoeste 0 -- -- 81
2020-10-24 17:00:00 17.9 16 Sudoeste 27 Sudoeste 0 -- -- 79
2020-10-24 16:00:00 17.5 13 Sudoeste 39 Sur 0 -- -- 84
2020-10-24 15:00:00 16.6 15 Sudoeste 32 Sudoeste 0 -- -- 87
2020-10-24 14:00:00 16.3 12 Sudoeste 24 Sur 0.4 -- -- 90
2020-10-24 13:00:00 17.5 12 Sudoeste 28 Sur 0 -- -- 82
2020-10-24 12:00:00 17.1 12 Sur 28 Sudoeste 0 -- -- 83
2020-10-24 11:00:00 15.8 9 Sur 22 Sur 0 -- -- 88
2020-10-24 10:00:00 14.7 10 Sur 19 Sudoeste 0 -- -- 92
2020-10-24 09:00:00 14.4 8 Sur 19 Sudoeste 0 -- -- 93
2020-10-24 08:00:00 14.3 8 Sur 19 Sudoeste 0 -- -- 93
2020-10-24 07:00:00 14 9 Sur 26 Sudoeste 0 -- -- 93
2020-10-24 06:00:00 14.9 9 Sur 20 Sur 0 -- -- 85
2020-10-24 05:00:00 14.7 8 Sur 21 Sur 0 -- -- 85
2020-10-24 04:00:00 14.7 9 Sur 25 Sudoeste 0 -- -- 83
2020-10-24 03:00:00 14.6 8 Sur 17 Sudoeste 0 -- -- 82
2020-10-24 02:00:00 14.4 7 Sur 19 Sur 0 -- -- 83
2020-10-24 01:00:00 14.5 8 Sur 19 Sur 0 -- -- 83
2020-10-24 00:00:00 14.6 8 Sur 18 Sur 0 -- -- 82
2020-10-23 23:00:00 14.5 5 Sur 13 Sur 0 -- -- 81
2020-10-23 22:00:00 14.4 6 Sur 15 Sur 0 -- -- 81
2020-10-23 21:00:00 13.8 6 Sur 13 Sur 0 -- -- 84
2020-10-23 20:00:00 14.6 5 Sur 14 Sudoeste 0 -- -- 81
2020-10-23 19:00:00 15.6 6 Sudoeste 18 Sudoeste 0 -- -- 74
2020-10-23 18:00:00 16.4 6 Sudoeste 17 Sudoeste 0 -- -- 71
2020-10-23 17:00:00 17.2 6 Sudoeste 18 Sudoeste 0 -- -- 66
2020-10-23 16:00:00 17.8 7 Sudoeste 19 Oeste 0 -- -- 65
2020-10-23 15:00:00 17.2 5 Sudoeste 17 Oeste 0 -- -- 65
2020-10-23 14:00:00 16 3 Noroeste 7 Oeste 0 -- -- 82
2020-10-23 13:00:00 14.9 0 Calma 7 Sudoeste 0 -- -- 84
2020-10-23 12:00:00 13.4 4 Sur 9 Sur 0.2 -- -- 98
2020-10-23 11:00:00 13 0 Calma 5 Este 0 -- -- 100
2020-10-23 10:00:00 11.7 0 Calma 6 Sur 0 -- -- 100
2020-10-23 09:00:00 11.9 3 Sudeste 6 Sur 0.2 -- -- 100
2020-10-23 08:00:00 11.4 0 Calma 4 Este 0.2 -- -- 100
2020-10-23 07:00:00 11.4 0 Calma 4 Sur 0 -- -- 100
2020-10-23 06:00:00 11.6 0 Calma 4 Sudeste 0 -- -- 100
2020-10-23 05:00:00 11.9 0 Calma 5 Sudeste 0.2 -- -- 100
2020-10-23 04:00:00 12.4 0 Calma 6 Sur 0 -- -- 100
2020-10-23 03:00:00 12.3 3 Sur 5 Sur 0.2 -- -- 100
2020-10-23 02:00:00 12.6 0 Calma 7 Nordeste 5.2 -- -- 100
2020-10-23 01:00:00 12.6 4 Sur 12 Sur 0.8 -- -- 99
2020-10-23 00:00:00 12.7 3 Sudoeste 6 Sudeste 1.6 -- -- 97
2020-10-22 23:00:00 12.6 0 Calma 8 Sudeste 0 -- -- 92
2020-10-22 22:00:00 13.1 4 Sur 9 Sur 0 -- -- 90
2020-10-22 21:00:00 13.5 4 Sur 7 Sudeste 0 -- -- 85
2020-10-22 20:00:00 14.8 4 Sudoeste 17 Sudoeste 0 -- -- 82
2020-10-22 19:00:00 16.1 6 Sudoeste 15 Sudoeste 0 -- -- 77
2020-10-22 18:00:00 16 5 Sudoeste 17 Oeste 0 -- -- 78
2020-10-22 17:00:00 17.4 7 Sudoeste 24 Sudoeste 0.2 -- -- 71
2020-10-22 16:00:00 17.7 9 Sudoeste 26 Sudoeste 0 -- -- 71
2020-10-22 15:00:00 18.3 8 Sudoeste 22 Sudoeste 0 -- -- 67
2020-10-22 14:00:00 17.4 6 Sur 19 Sur 0.2 -- -- 77
2020-10-22 13:00:00 17.8 8 Sur 21 Sur 0 -- -- 75
2020-10-22 12:00:00 15.7 4 Sudeste 19 Sur 0 -- -- 84
2020-10-22 11:00:00 15.5 5 Sur 17 Sur 0 -- -- 83
2020-10-22 10:00:00 13.3 5 Sur 17 Sudeste 0 -- -- 90
2020-10-22 09:00:00 12.7 6 Sur 16 Sur 0 -- -- 91
2020-10-22 08:00:00 12.6 5 Sur 18 Sur 0 -- -- 92
2020-10-22 07:00:00 12.8 6 Sur 14 Sur 0 -- -- 91
2020-10-22 06:00:00 12.8 5 Sur 11 Sudeste 0 -- -- 92
2020-10-22 05:00:00 12.8 4 Sur 13 Sur 0 -- -- 95
2020-10-22 04:00:00 13 5 Sur 13 Sur 0 -- -- 96
2020-10-22 03:00:00 13.5 6 Sur 16 Sudoeste 0 -- -- 92
2020-10-22 02:00:00 13.6 6 Sur 20 Sur 0 -- -- 93
2020-10-22 01:00:00 13.3 6 Sur 15 Sur 0 -- -- 93
2020-10-22 00:00:00 13.3 6 Sur 17 Sur 0 -- -- 90
2020-10-21 23:00:00 13.6 5 Sur 14 Sur 0 -- -- 88
2020-10-21 22:00:00 13.6 5 Sur 15 Sudeste 0 -- -- 90
2020-10-21 21:00:00 14.3 5 Sur 17 Sur 0 -- -- 87
2020-10-21 20:00:00 15.2 5 Sur 13 Sur 0 -- -- 83
2020-10-21 19:00:00 16.5 6 Sudoeste 18 Sudoeste 0 -- -- 78
2020-10-21 18:00:00 17.5 7 Sudoeste 22 Sur 0 -- -- 76
2020-10-21 17:00:00 17.7 8 Sudoeste 21 Oeste 0 -- -- 75
2020-10-21 16:00:00 18.9 10 Sudoeste 29 Sudoeste 0 -- -- 69
2020-10-21 15:00:00 17.6 5 Sur 22 Sudoeste 0 -- -- 77
2020-10-21 14:00:00 17.2 8 Sur 22 Sur 0 -- -- 80
2020-10-21 13:00:00 17.1 7 Sur 25 Sur 0 -- -- 83
2020-10-21 12:00:00 14.4 8 Sur 19 Sudeste 0 -- -- 92
2020-10-21 11:00:00 13.8 5 Sur 10 Sur 1.2 -- -- 97
2020-10-21 10:00:00 14 4 Sudoeste 11 Oeste 0 -- -- 99
2020-10-21 09:00:00 13.8 2 Sudoeste 12 Sur 0.2 -- -- 98
2020-10-21 08:00:00 13.6 5 Sudoeste 10 Sudoeste 0 -- -- 98
2020-10-21 07:00:00 13.7 6 Sudoeste 18 Sudoeste 0 -- -- 98
2020-10-21 06:00:00 14 6 Sudoeste 17 Sur 0.2 -- -- 98
2020-10-21 05:00:00 14 6 Sudoeste 20 Sudoeste 0.8 -- -- 99
2020-10-21 04:00:00 14.2 9 Sudoeste 23 Sur 3.2 -- -- 99
2020-10-21 03:00:00 14.4 8 Sudoeste 18 Sudoeste 0 -- -- 96
2020-10-21 02:00:00 14.6 5 Sudoeste 17 Sudoeste 0.8 -- -- 98
2020-10-21 01:00:00 14.3 6 Sudoeste 16 Sudoeste 8.6 -- -- 99
2020-10-21 00:00:00 13.9 6 Sur 15 Sur 0 -- -- 98
2020-10-20 23:00:00 13.7 4 Sur 8 Sur 0.8 -- -- 99
2020-10-20 22:00:00 13.9 3 Sur 12 Sudeste 1.2 -- -- 98
2020-10-20 21:00:00 13.9 4 Sur 9 Sur 0.2 -- -- 98
2020-10-20 20:00:00 14.4 0 Calma 8 Sudeste 0.4 -- -- 93
2020-10-20 19:00:00 14.7 3 Sur 8 Este 0 -- -- 93
2020-10-20 18:00:00 15.2 4 Este 13 Este 0.8 -- -- 91
2020-10-20 17:00:00 16.2 3 Sudeste 12 Sudeste 0 -- -- 85
2020-10-20 16:00:00 16.8 5 Sur 23 Sudeste 0 -- -- 81
2020-10-20 15:00:00 17.4 7 Sur 25 Sudeste 0 -- -- 77
2020-10-20 14:00:00 17.7 12 Sur 29 Sur 0 -- -- 78
2020-10-20 13:00:00 17.9 8 Sur 20 Sur 0 -- -- 78
2020-10-20 12:00:00 17.3 10 Sur 29 Sudoeste 0 -- -- 81
2020-10-20 11:00:00 16.4 7 Sur 21 Sur 0 -- -- 83
2020-10-20 10:00:00 15.7 2 Este 15 Este 0 -- -- 90
2020-10-20 09:00:00 15.6 4 Sudeste 19 Este 0 -- -- 88
2020-10-20 08:00:00 15.7 8 Este 20 Este 0 -- -- 91
2020-10-20 07:00:00 15.6 3 Sur 12 Sur 0 -- -- 93
2020-10-20 06:00:00 15.6 2 Sudeste 12 Sudeste 0 -- -- 93
2020-10-20 05:00:00 15.7 4 Sur 14 Sudeste 0 -- -- 94
2020-10-20 04:00:00 15.8 6 Sur 14 Sur 0 -- -- 93
2020-10-20 03:00:00 15.9 3 Sur 9 Sur 0 -- -- 95
2020-10-20 02:00:00 15.8 3 Sur 8 Sur 0 -- -- 96
2020-10-20 01:00:00 15.9 0 Calma 8 Sur 0 -- -- 96
2020-10-20 00:00:00 16 0 Calma 8 Sur 0 -- -- 97
2020-10-19 23:00:00 16.2 0 Calma 8 Sur 0 -- -- 98
2020-10-19 22:00:00 16.2 2 Sur 5 Sudeste 0.2 -- -- 97
2020-10-19 21:00:00 16.3 2 Sur 7 Sudoeste 0.2 -- -- 97
2020-10-19 20:00:00 16.9 5 Sur 25 Oeste 0 -- -- 93
2020-10-19 19:00:00 17.3 11 Sudoeste 36 Sur 0 -- -- 91
2020-10-19 18:00:00 17.5 21 Sudoeste 44 Sudoeste 0.2 -- -- 90
2020-10-19 17:00:00 15.8 15 Sur 32 Sur 2 -- -- 96
2020-10-19 16:00:00 15 3 Nordeste 25 Sudoeste 8.4 -- -- 98
2020-10-19 15:00:00 15.5 16 Sur 43 Sur 4.8 -- -- 93
2020-10-19 14:00:00 17.7 18 Sur 46 Sur 0 -- -- 73
2020-10-19 13:00:00 19.2 21 Sur 45 Sur 0 -- -- 61
2020-10-19 12:00:00 20 16 Sur 49 Sur 0 -- -- 52
2020-10-19 11:00:00 19.3 18 Sur 39 Sur 0 -- -- 55
2020-10-19 10:00:00 18.5 8 Sur 23 Sur 0 -- -- 56
2020-10-19 09:00:00 18.1 8 Sur 23 Sudeste 0 -- -- 57
2020-10-19 08:00:00 16.4 5 Sur 21 Sudoeste 0 -- -- 55
2020-10-19 07:00:00 16 2 Este 6 Sudoeste 0 -- -- 53
2020-10-19 06:00:00 17.3 4 Sudoeste 9 Sudoeste 0 -- -- 46
2020-10-19 05:00:00 18.3 5 Sur 14 Sudoeste 0 -- -- 44
2020-10-19 04:00:00 17.8 4 Sur 12 Sur 0 -- -- 46
2020-10-19 03:00:00 17.7 2 Sur 12 Sur 0 -- -- 47
2020-10-19 02:00:00 17.3 4 Sudeste 12 Este 0 -- -- 51
2020-10-19 01:00:00 17.1 2 Nordeste 7 Sudeste 0 -- -- 61
2020-10-19 00:00:00 17.1 4 Este 9 Este 0 -- -- 64
2020-10-18 23:00:00 17 0 Calma 5 Sudeste 0 -- -- 66
2020-10-18 22:00:00 16.9 0 Calma 6 Este 0 -- -- 64
2020-10-18 21:00:00 16.8 2 Este 8 Norte 0 -- -- 71
2020-10-18 20:00:00 16.8 3 Este 7 Norte 0 -- -- 65
2020-10-18 19:00:00 17.9 3 Nordeste 8 Nordeste 0 -- -- 64
2020-10-18 18:00:00 18.5 4 Nordeste 13 Nordeste 0 -- -- 67
2020-10-18 17:00:00 19.3 5 Nordeste 11 Norte 0 -- -- 66
2020-10-18 16:00:00 19.4 3 Nordeste 9 Oeste 0 -- -- 68
2020-10-18 15:00:00 19.5 4 Oeste 13 Sudoeste 0 -- -- 69
2020-10-18 14:00:00 20.8 7 Sudoeste 14 Sudeste 0 -- -- 58
2020-10-18 13:00:00 19.5 3 Sur 13 Sudeste 0 -- -- 70
2020-10-18 12:00:00 17.7 3 Sudeste 9 Este 0 -- -- 74
2020-10-18 11:00:00 16 0 Calma 10 Sudeste 0 -- -- 83
2020-10-18 10:00:00 14.8 0 Calma 5 Norte 0 -- -- 87
2020-10-18 09:00:00 15 2 Nordeste 10 Sudeste 0 -- -- 87
2020-10-18 08:00:00 14.8 3 Este 10 Sudeste 0 -- -- 89
2020-10-18 07:00:00 14.4 0 Calma 10 Sudeste 0 -- -- 91
2020-10-18 06:00:00 14.3 2 Este 7 Este 0 -- -- 92
2020-10-18 05:00:00 14.1 2 Nordeste 6 Sudeste 0 -- -- 92
2020-10-18 04:00:00 14.1 3 Sur 8 Sur 0 -- -- 90
2020-10-18 03:00:00 14 0 Calma 5 Sur 0 -- -- 92
2020-10-18 02:00:00 14.3 0 Calma 8 Sudoeste 0 -- -- 91
2020-10-18 01:00:00 14.9 0 Calma 13 Este 0 -- -- 89
2020-10-18 00:00:00 15.5 5 Sudeste 14 Sudeste 0 -- -- 88
2020-10-17 23:00:00 15.3 3 Sur 12 Sudeste 0 -- -- 87
2020-10-17 22:00:00 15.4 4 Sudeste 12 Sudeste 0 -- -- 87
2020-10-17 21:00:00 15.9 0 Calma 9 Sur 0 -- -- 85
2020-10-17 20:00:00 16.1 5 Sur 13 Sur 0 -- -- 83
2020-10-17 19:00:00 16.9 0 Calma 13 Sudoeste 0 -- -- 78
2020-10-17 18:00:00 17.6 4 Sur 15 Sudeste 0 -- -- 75
2020-10-17 17:00:00 18.9 5 Sur 14 Sur 0 -- -- 72
2020-10-17 16:00:00 15.7 0 Calma 5 Norte 0 -- -- 84
2020-10-17 15:00:00 14.4 4 Nordeste 9 Nordeste 0 -- -- 88
2020-10-17 14:00:00 15.1 3 Nordeste 11 Sudoeste 0 -- -- 81
2020-10-17 13:00:00 15.3 2 Sudoeste 12 Sudeste 0 -- -- 80
2020-10-17 12:00:00 14.6 3 Sudeste 13 Sudeste 0 -- -- 80
2020-10-17 11:00:00 13.3 5 Sur 16 Sudeste 0 -- -- 80
2020-10-17 10:00:00 12.3 5 Sur 13 Sudeste 0 -- -- 80
2020-10-17 09:00:00 12 5 Este 13 Este 0 -- -- 79
2020-10-17 08:00:00 12.4 3 Sudeste 10 Sur 0 -- -- 76
2020-10-17 07:00:00 11.9 2 Sur 8 Sur 0 -- -- 80
2020-10-17 06:00:00 11.3 0 Calma 7 Sudeste 0 -- -- 81
2020-10-17 05:00:00 11.2 3 Este 6 Sudeste 0 -- -- 80
2020-10-17 04:00:00 10.9 3 Sur 8 Sudeste 0 -- -- 81
2020-10-17 03:00:00 10.9 2 Sudeste 8 Sudeste 0 -- -- 85
2020-10-17 02:00:00 10.9 2 Sudeste 5 Sudeste 0 -- -- 83
2020-10-17 01:00:00 10.8 2 Sudeste 6 Sudeste 0 -- -- 83
2020-10-17 00:00:00 11 0 Calma 5 Este 0 -- -- 84
2020-10-16 23:00:00 11 0 Calma 4 Sudeste 0 -- -- 88
2020-10-16 22:00:00 11.1 0 Calma 3 Sudeste 0 -- -- 87
2020-10-16 21:00:00 11.8 0 Calma 3 Oeste 0 -- -- 84
2020-10-16 20:00:00 12.7 2 Oeste 6 Sudoeste 0 -- -- 79
2020-10-16 19:00:00 13.6 3 Sudoeste 10 Noroeste 0 -- -- 73
2020-10-16 18:00:00 14.7 4 Oeste 16 Oeste 0 -- -- 65
2020-10-16 17:00:00 16.3 6 Sudoeste 17 Oeste 0 -- -- 59
2020-10-16 16:00:00 16.7 6 Sudoeste 16 Oeste 0 -- -- 59
2020-10-16 15:00:00 17.2 5 Oeste 14 Oeste 0 -- -- 53
2020-10-16 14:00:00 16.6 6 Norte 12 Norte 0 -- -- 51
2020-10-16 13:00:00 16.3 6 Nordeste 11 Nordeste 0 -- -- 58
2020-10-16 12:00:00 15.9 2 Sudeste 10 Este 0 -- -- 61
2020-10-16 11:00:00 13.5 4 Este 11 Este 0 -- -- 68
2020-10-16 10:00:00 10 3 Este 8 Sudeste 0 -- -- 79
2020-10-16 09:00:00 9 2 Este 8 Este 0 -- -- 83
2020-10-16 08:00:00 9.2 3 Este 10 Nordeste 0 -- -- 83
2020-10-16 07:00:00 9.2 3 Nordeste 8 Este 0 -- -- 83
2020-10-16 06:00:00 9.5 3 Este 9 Este 0 -- -- 84
2020-10-16 05:00:00 9.6 2 Nordeste 7 Este 0 -- -- 84
2020-10-16 04:00:00 10 2 Nordeste 6 Este 0 -- -- 83
2020-10-16 03:00:00 10.9 3 Nordeste 12 Este 0 -- -- 79
2020-10-16 02:00:00 11 2 Nordeste 8 Este 0 -- -- 76
2020-10-16 01:00:00 11.4 4 Nordeste 10 Nordeste 0 -- -- 77
2020-10-16 00:00:00 12 3 Nordeste 13 Norte 0 -- -- 77
2020-10-15 23:00:00 12.1 0 Calma 10 Nordeste 0 -- -- 80
2020-10-15 22:00:00 12.7 0 Calma 9 Noroeste 0 -- -- 83
2020-10-15 21:00:00 13.2 0 Calma 7 Noroeste 0 -- -- 82
2020-10-15 20:00:00 14.5 5 Noroeste 13 Norte 0 -- -- 74
2020-10-15 19:00:00 15.7 4 Norte 14 Oeste 0 -- -- 75
2020-10-15 18:00:00 16.6 5 Norte 20 Norte 0 -- -- 69
2020-10-15 17:00:00 17.4 7 Norte 18 Nordeste 0 -- -- 60
2020-10-15 16:00:00 16.3 8 Norte 25 Norte 0 -- -- 72
2020-10-15 15:00:00 17.6 6 Norte 14 Nordeste 0 -- -- 62
2020-10-15 14:00:00 16.7 5 Oeste 13 Sudoeste 0 -- -- 73
2020-10-15 13:00:00 15.5 5 Norte 11 Norte 0 -- -- 73
2020-10-15 12:00:00 13.3 3 Norte 7 Norte 0 -- -- 82
2020-10-15 11:00:00 13.3 0 Calma 4 Nordeste 0 -- -- 83
2020-10-15 10:00:00 10 0 Calma 4 Este 0 -- -- 97
2020-10-15 09:00:00 9.9 0 Calma 7 Sur 0 -- -- 94
2020-10-15 08:00:00 9.6 2 Sudeste 5 Sudeste 0 -- -- 96
2020-10-15 07:00:00 9.3 0 Calma 4 Sudeste 0 -- -- 95
2020-10-15 06:00:00 9.5 0 Calma 5 Sudeste 0 -- -- 95
2020-10-15 05:00:00 9.7 2 Sudeste 8 Sudeste 0 -- -- 93
2020-10-15 04:00:00 9.6 0 Calma 5 Sudeste 0 -- -- 94
2020-10-15 03:00:00 9.8 0 Calma 5 Oeste 0 -- -- 92
2020-10-15 02:00:00 10.4 3 Sudeste 8 Nordeste 0 -- -- 88
2020-10-15 01:00:00 10.6 2 Nordeste 9 Nordeste 0 -- -- 88
2020-10-15 00:00:00 10.7 0 Calma 9 Nordeste 0 -- -- 87
2020-10-14 23:00:00 11.4 3 Este 13 Este 0 -- -- 82
2020-10-14 22:00:00 12.4 5 Norte 13 Nordeste 0 -- -- 80
2020-10-14 21:00:00 13 4 Norte 14 Nordeste 0 -- -- 80
2020-10-14 20:00:00 14.1 4 Norte 8 Nordeste 0 -- -- 79
2020-10-14 19:00:00 14.7 3 Noroeste 10 Nordeste 0 -- -- 79
2020-10-14 18:00:00 15.3 3 Norte 11 Oeste 0 -- -- 81
2020-10-14 17:00:00 14.5 4 Oeste 14 Noroeste 0 -- -- 84
2020-10-14 16:00:00 15 6 Norte 17 Noroeste 0 -- -- 82
2020-10-14 15:00:00 15.7 5 Sudoeste 14 Norte 0 -- -- 79
2020-10-14 14:00:00 15.8 4 Sudoeste 11 Oeste 0 -- -- 75
2020-10-14 13:00:00 15.4 3 Noroeste 10 Oeste 0 -- -- 73
2020-10-14 12:00:00 14.3 5 Norte 8 Norte 0 -- -- 78
2020-10-14 11:00:00 13 3 Norte 6 Nordeste 0 -- -- 86
2020-10-14 10:00:00 10.4 0 Calma 5 Sur 0 -- -- 97
2020-10-14 09:00:00 9.6 0 Calma 2 Este 0 -- -- 99
2020-10-14 08:00:00 9.7 0 Calma 3 Sudoeste 0 -- -- 98
2020-10-14 07:00:00 10 0 Calma 6 Norte 0 -- -- 96
2020-10-14 06:00:00 10.4 0 Calma 4 Oeste 0 -- -- 95
2020-10-14 05:00:00 11 0 Calma 4 Oeste 0 -- -- 93
2020-10-14 04:00:00 11.5 2 Norte 6 Norte 0 -- -- 91
2020-10-14 03:00:00 11.5 0 Calma 8 Norte 0 -- -- 90
2020-10-14 02:00:00 11.4 0 Calma 6 Norte 0 -- -- 90
2020-10-14 01:00:00 12.1 0 Calma 16 Nordeste 0 -- -- 84
2020-10-14 00:00:00 12.8 10 Norte 20 Norte 0 -- -- 81
2020-10-13 23:00:00 13.3 7 Norte 18 Norte 0 -- -- 79
2020-10-13 22:00:00 13.5 8 Norte 26 Norte 0 -- -- 78
2020-10-13 21:00:00 14.1 6 Nordeste 21 Nordeste 0 -- -- 77
2020-10-13 20:00:00 14.7 9 Norte 19 Norte 0 -- -- 77
2020-10-13 19:00:00 15.3 8 Norte 25 Norte 0 -- -- 74
2020-10-13 18:00:00 16.1 6 Norte 17 Norte 0 -- -- 74
2020-10-13 17:00:00 17.1 7 Norte 22 Norte 0 -- -- 71
2020-10-13 16:00:00 17.2 6 Norte 20 Norte 0 -- -- 65
2020-10-13 15:00:00 17.1 7 Norte 29 Norte 0 -- -- 69
2020-10-13 14:00:00 17.7 9 Norte 22 Norte 0 -- -- 68
2020-10-13 13:00:00 16.2 13 Norte 28 Norte 0 -- -- 74
2020-10-13 12:00:00 15.9 10 Norte 21 Nordeste 0 -- -- 81
2020-10-13 11:00:00 14.4 8 Norte 15 Norte 0 -- -- 100
2020-10-13 10:00:00 14.9 3 Norte 6 Noroeste 0 -- -- 100
2020-10-13 09:00:00 14.5 0 Calma 5 Norte 0 -- -- 100
2020-10-13 08:00:00 14.8 0 Calma 2 Sudeste 0.2 -- -- 100
2020-10-13 07:00:00 14.6 0 Calma 4 Norte 0.2 -- -- 100
2020-10-13 06:00:00 14.7 0 Calma 2 Sudoeste 0.4 -- -- 100
2020-10-13 05:00:00 14.5 0 Calma 5 Sur 0 -- -- 100
2020-10-13 04:00:00 -- -- -- -- -- -- -- -- --
2020-10-13 03:00:00 14.2 2 Nordeste 5 Nordeste 0 -- -- 98
2020-10-13 02:00:00 14.8 0 Calma 5 Oeste 0 -- -- 98
2020-10-13 01:00:00 -- -- -- -- -- -- -- -- --
2020-10-13 00:00:00 14.9 2 Sur 4 Sudoeste 0 -- -- 96
2020-10-12 23:00:00 14.8 3 Oeste 7 Oeste 0 -- -- 96
2020-10-12 22:00:00 15 3 Sur 6 Sudoeste 0 -- -- 94
2020-10-12 21:00:00 15.2 0 Calma 6 Sudoeste 0 -- -- 93
2020-10-12 20:00:00 15.9 0 Calma 11 Oeste 0 -- -- 87
2020-10-12 19:00:00 16.6 4 Oeste 12 Oeste 0 -- -- 82
2020-10-12 18:00:00 18.4 4 Noroeste 12 Oeste 0 -- -- 78
2020-10-12 17:00:00 17.9 5 Norte 14 Nordeste 0 -- -- 80
2020-10-12 16:00:00 18.2 5 Norte 21 Norte 0 -- -- 77
2020-10-12 15:00:00 18.6 10 Norte 26 Norte 0 -- -- 72
2020-10-12 14:00:00 19.6 6 Nordeste 18 Norte 0 -- -- 65
2020-10-12 13:00:00 18.9 3 Nordeste 13 Nordeste 0 -- -- 64
2020-10-12 12:00:00 17.4 4 Este 13 Norte 0 -- -- 64
2020-10-12 11:00:00 14.5 4 Norte 10 Norte 0 -- -- 67
2020-10-12 10:00:00 11.6 2 Nordeste 15 Nordeste 0 -- -- 78
2020-10-12 09:00:00 10.3 0 Calma 15 Nordeste 0 -- -- 83
2020-10-12 08:00:00 10.8 3 Nordeste 10 Este 0 -- -- 81
2020-10-12 07:00:00 11.3 3 Nordeste 12 Nordeste 0 -- -- 79
2020-10-12 06:00:00 11.5 4 Nordeste 14 Norte 0 -- -- 79
2020-10-12 05:00:00 11.7 4 Nordeste 17 Nordeste 0 -- -- 77
2020-10-12 04:00:00 -- -- -- -- -- -- -- -- --
2020-10-12 03:00:00 12.2 6 Nordeste 26 Norte 0 -- -- 75
2020-10-12 02:00:00 12.3 6 Nordeste 23 Nordeste 0 -- -- 75
2020-10-12 01:00:00 12.6 5 Nordeste 21 Norte 0 -- -- 73
2020-10-12 00:00:00 12.9 7 Nordeste 21 Este 0 -- -- 69
2020-10-11 23:00:00 13.7 10 Nordeste 33 Nordeste 0 -- -- 64
2020-10-11 22:00:00 14.3 9 Nordeste 29 Nordeste 0 -- -- 64
2020-10-11 21:00:00 -- -- -- -- -- -- -- -- --
2020-10-11 20:00:00 -- -- -- -- -- -- -- -- --
2020-10-11 19:00:00 17.5 13 Nordeste 31 Nordeste 0 -- -- 54
2020-10-11 18:00:00 18.8 9 Nordeste 36 Este 0 -- -- 54
2020-10-11 17:00:00 20.1 11 Nordeste 29 Nordeste 0 -- -- 49
2020-10-11 16:00:00 20.5 11 Nordeste 29 Nordeste 0 -- -- 47
2020-10-11 15:00:00 20.1 9 Nordeste 28 Norte 0 -- -- 49
2020-10-11 14:00:00 19.2 11 Nordeste 30 Nordeste 0 -- -- 51
2020-10-11 13:00:00 18.1 8 Nordeste 29 Nordeste 0 -- -- 55
2020-10-11 12:00:00 16.4 9 Nordeste 26 Nordeste 0 -- -- 63
2020-10-11 11:00:00 15 6 Nordeste 19 Norte 0 -- -- 65
2020-10-11 10:00:00 12.4 8 Nordeste 26 Norte 0 -- -- 73
2020-10-11 09:00:00 11.7 5 Nordeste 21 Este 0 -- -- 77
2020-10-11 08:00:00 11.8 5 Nordeste 25 Norte 0 -- -- 78
2020-10-11 07:00:00 12.2 4 Nordeste 21 Nordeste 0 -- -- 73
2020-10-11 06:00:00 12.7 7 Nordeste 24 Norte 0 -- -- 70
2020-10-11 05:00:00 12.8 8 Nordeste 22 Nordeste 0 -- -- 71
2020-10-11 04:00:00 12.9 9 Nordeste 26 Nordeste 0 -- -- 75
2020-10-11 03:00:00 13.1 5 Este 22 Este 0 -- -- 76
2020-10-11 02:00:00 13.4 6 Este 31 Nordeste 0 -- -- 74
2020-10-11 01:00:00 13.9 11 Nordeste 32 Nordeste 0 -- -- 73
2020-10-11 00:00:00 14.1 9 Nordeste 26 Nordeste 0 -- -- 74
2020-10-10 23:00:00 14.7 9 Nordeste 26 Nordeste 0 -- -- 70
2020-10-10 22:00:00 15.3 8 Nordeste 30 Nordeste 0 -- -- 66
2020-10-10 21:00:00 16.2 7 Nordeste 35 Nordeste 0 -- -- 63
2020-10-10 20:00:00 17.4 9 Nordeste 33 Nordeste 0 -- -- 60
2020-10-10 19:00:00 18.5 14 Nordeste 35 Nordeste 0 -- -- 55
2020-10-10 18:00:00 19.7 12 Nordeste 36 Este 0 -- -- 56
2020-10-10 17:00:00 21.3 9 Nordeste 35 Norte 0 -- -- 56
2020-10-10 16:00:00 21.3 12 Nordeste 31 Nordeste 0 -- -- 55
2020-10-10 15:00:00 21.6 10 Nordeste 27 Norte 0 -- -- 56
2020-10-10 14:00:00 20.5 7 Nordeste 30 Este 0 -- -- 60
2020-10-10 13:00:00 19.3 13 Nordeste 33 Norte 0 -- -- 63
2020-10-10 12:00:00 18.5 6 Nordeste 24 Nordeste 0 -- -- 69
2020-10-10 11:00:00 16.9 7 Nordeste 33 Nordeste 0 -- -- 76
2020-10-10 10:00:00 14.9 8 Nordeste 23 Nordeste 0 -- -- 82
2020-10-10 09:00:00 14.4 5 Nordeste 18 Nordeste 0 -- -- 84
2020-10-10 08:00:00 14.8 4 Nordeste 22 Nordeste 0 -- -- 84
2020-10-10 07:00:00 15.2 6 Nordeste 19 Norte 0 -- -- 84
2020-10-10 06:00:00 14.6 3 Nordeste 13 Nordeste 0 -- -- 93
2020-10-10 05:00:00 14.7 0 Calma 13 Nordeste 0 -- -- 92
2020-10-10 04:00:00 15.2 4 Nordeste 17 Nordeste 0 -- -- 89
2020-10-10 03:00:00 15.5 4 Nordeste 20 Norte 0 -- -- 87
2020-10-10 02:00:00 15.8 6 Nordeste 17 Nordeste 0 -- -- 88
2020-10-10 01:00:00 15.3 2 Nordeste 12 Nordeste 0 -- -- 94
2020-10-10 00:00:00 15.5 3 Nordeste 12 Norte 0 -- -- 96
2020-10-09 23:00:00 15.3 0 Calma 4 Norte 0 -- -- 97
2020-10-09 22:00:00 15.6 0 Calma 6 Sudoeste 0 -- -- 96
2020-10-09 21:00:00 16.2 3 Sudoeste 11 Oeste 0 -- -- 94
2020-10-09 20:00:00 17.3 4 Sudoeste 10 Oeste 0 -- -- 89
2020-10-09 19:00:00 18.4 4 Noroeste 14 Oeste 0 -- -- 86
2020-10-09 18:00:00 19.3 5 Sudoeste 13 Noroeste 0 -- -- 81
2020-10-09 17:00:00 21.5 4 Oeste 17 Oeste 0 -- -- 72
2020-10-09 16:00:00 22 5 Sudoeste 16 Oeste 0 -- -- 69
2020-10-09 15:00:00 21.2 7 Oeste 13 Oeste 0 -- -- 69
2020-10-09 14:00:00 20.2 6 Noroeste 11 Oeste 0 -- -- 70
2020-10-09 13:00:00 20.6 3 Nordeste 7 Norte 0 -- -- 71
2020-10-09 12:00:00 19.1 0 Calma 8 Este 0 -- -- 76
2020-10-09 11:00:00 16.1 3 Nordeste 9 Norte 0 -- -- 85
2020-10-09 10:00:00 15 0 Calma 5 Este 0 -- -- 90
2020-10-09 09:00:00 13.6 3 Nordeste 8 Sudeste 0 -- -- 97
2020-10-09 08:00:00 13 4 Sudeste 8 Sudeste 0 -- -- 100
2020-10-09 07:00:00 12.7 2 Sudeste 4 Sudeste 0 -- -- 100
2020-10-09 06:00:00 12.8 0 Calma 3 Nordeste 0 -- -- 100
2020-10-09 05:00:00 13 0 Calma 3 Sudeste 0 -- -- 100
2020-10-09 04:00:00 13.2 0 Calma 3 Norte 0 -- -- 100
2020-10-09 03:00:00 13.4 0 Calma 3 Sudeste 0 -- -- 100
2020-10-09 02:00:00 13.8 3 Sur 6 Sudeste 0 -- -- 99
2020-10-09 01:00:00 14.3 0 Calma 3 Sudeste 0 -- -- 99
2020-10-09 00:00:00 14.3 0 Calma 5 Sudeste 0 -- -- 98
2020-10-08 23:00:00 14.6 0 Calma 5 Oeste 0 -- -- 97
2020-10-08 22:00:00 15.1 2 Sudoeste 6 Oeste 0 -- -- 96
2020-10-08 21:00:00 15.6 2 Sudoeste 14 Oeste 0 -- -- 94
2020-10-08 20:00:00 16.4 3 Sudoeste 13 Sudoeste 0 -- -- 88
2020-10-08 19:00:00 17.7 5 Sudoeste 16 Oeste 0 -- -- 81
2020-10-08 18:00:00 19 5 Sudoeste 17 Oeste 0 -- -- 75
2020-10-08 17:00:00 20.6 5 Sudoeste 13 Oeste 0 -- -- 70
2020-10-08 16:00:00 20.5 5 Oeste 15 Oeste 0 -- -- 76
2020-10-08 15:00:00 19.6 6 Oeste 13 Oeste 0 -- -- 78
2020-10-08 14:00:00 18.5 6 Oeste 9 Oeste 0 -- -- 82
2020-10-08 13:00:00 17.5 4 Norte 9 Norte 0 -- -- 87
2020-10-08 12:00:00 16.3 0 Calma 6 Este 0 -- -- 95
2020-10-08 11:00:00 15 2 Este 6 Nordeste 0 -- -- 99
2020-10-08 10:00:00 14.2 0 Calma 8 Este 0 -- -- 100
2020-10-08 09:00:00 13.6 0 Calma 5 Este 0 -- -- 100
2020-10-08 08:00:00 13.2 0 Calma 6 Nordeste 0 -- -- 100
2020-10-08 07:00:00 13.3 0 Calma 4 Nordeste 0 -- -- 100
2020-10-08 06:00:00 13.4 0 Calma 2 Nordeste 0 -- -- 100
2020-10-08 05:00:00 13.9 0 Calma 4 Oeste 0 -- -- 100
2020-10-08 04:00:00 13.9 0 Calma 3 Noroeste 0 -- -- 100
2020-10-08 03:00:00 14.1 0 Calma 3 Nordeste 0 -- -- 99
2020-10-08 02:00:00 14.4 0 Calma 3 Nordeste 0 -- -- 99
2020-10-08 01:00:00 14.8 2 Nordeste 6 Nordeste 0 -- -- 97
2020-10-08 00:00:00 14.9 0 Calma 5 Este 0 -- -- 95
2020-10-07 23:00:00 15.2 0 Calma 6 Sudeste 0 -- -- 94
2020-10-07 22:00:00 15.9 3 Sur 6 Sur 0 -- -- 92
2020-10-07 21:00:00 16.5 4 Sur 6 Sudoeste 0 -- -- 89
2020-10-07 20:00:00 17.8 2 Oeste 9 Norte 0 -- -- 85
2020-10-07 19:00:00 18.9 2 Sur 14 Noroeste 0 -- -- 83
2020-10-07 18:00:00 19.9 5 Norte 18 Noroeste 0 -- -- 78
2020-10-07 17:00:00 20.7 5 Norte 17 Noroeste 0 -- -- 79
2020-10-07 16:00:00 21.6 4 Nordeste 16 Oeste 0 -- -- 77
2020-10-07 15:00:00 21.4 5 Oeste 16 Oeste 0 -- -- 80
2020-10-07 14:00:00 20.4 6 Oeste 12 Noroeste 0 -- -- 84
2020-10-07 13:00:00 19.6 5 Noroeste 9 Oeste 0 -- -- 89
2020-10-07 12:00:00 18 0 Calma 5 Norte 0 -- -- 98
2020-10-07 11:00:00 17.1 2 Norte 6 Norte 0 -- -- 100
2020-10-07 10:00:00 16.7 2 Sur 4 Sur 0 -- -- 100
2020-10-07 09:00:00 16.4 0 Calma 8 Este 0 -- -- 100
2020-10-07 08:00:00 16.5 4 Norte 9 Norte 0.2 -- -- 100
2020-10-07 07:00:00 16.5 0 Calma 5 Norte 0 -- -- 100
2020-10-07 06:00:00 16.5 0 Calma 5 Oeste 0.8 -- -- 100
2020-10-07 05:00:00 16.6 0 Calma 4 Oeste 1.6 -- -- 100
2020-10-07 04:00:00 16.5 2 Sudoeste 7 Sudoeste 2.4 -- -- 100
2020-10-07 03:00:00 16.7 0 Calma 4 Sudoeste 0.4 -- -- 100
2020-10-07 02:00:00 16.8 0 Calma 4 Oeste 0.8 -- -- 100
2020-10-07 01:00:00 16.9 0 Calma 3 Este 0 -- -- 99
2020-10-07 00:00:00 17 0 Calma 4 Oeste 0 -- -- 97
2020-10-06 23:00:00 17 0 Calma 6 Sudoeste 0 -- -- 97
2020-10-06 22:00:00 17 0 Calma 6 Sur 0 -- -- 96
2020-10-06 21:00:00 17.1 0 Calma 6 Noroeste 0 -- -- 95
2020-10-06 20:00:00 17.5 2 Sudoeste 11 Noroeste 0 -- -- 93
2020-10-06 19:00:00 18.4 4 Sudoeste 13 Oeste 0 -- -- 89
2020-10-06 18:00:00 18.6 4 Oeste 13 Sudoeste 0 -- -- 91
2020-10-06 17:00:00 18.9 3 Oeste 14 Sudoeste 0 -- -- 88
2020-10-06 16:00:00 19.1 5 Sudoeste 15 Oeste 0 -- -- 88
2020-10-06 15:00:00 18.7 5 Oeste 18 Sudoeste 0.2 -- -- 94
2020-10-06 14:00:00 17.6 5 Sudoeste 15 Oeste 0.2 -- -- 100
2020-10-06 13:00:00 17.6 5 Sudoeste 17 Oeste 0 -- -- 100
2020-10-06 12:00:00 17.3 4 Sudoeste 14 Sudoeste 0 -- -- 100
2020-10-06 11:00:00 16.9 4 Sudoeste 17 Sur 0 -- -- 100
2020-10-06 10:00:00 17 4 Sudoeste 13 Sudoeste 0 -- -- 100
2020-10-06 09:00:00 16.7 4 Sudoeste 12 Sudoeste 0 -- -- 100
2020-10-06 08:00:00 16.5 2 Sudoeste 6 Sudoeste 0 -- -- 100
2020-10-06 07:00:00 16.4 4 Sudoeste 13 Sudoeste 0 -- -- 100
2020-10-06 06:00:00 16.4 0 Calma 10 Sudoeste 0 -- -- 100
2020-10-06 05:00:00 16.3 3 Sudoeste 11 Sudoeste 0 -- -- 100
2020-10-06 04:00:00 16.3 0 Calma 8 Oeste 0.2 -- -- 100
2020-10-06 03:00:00 16.1 0 Calma 8 Sur 0 -- -- 100
2020-10-06 02:00:00 16 0 Calma 5 Nordeste 0.2 -- -- 100
2020-10-06 01:00:00 16.1 2 Norte 4 Norte 0.6 -- -- 100
2020-10-06 00:00:00 16.1 0 Calma 5 Sudeste 0 -- -- 100
2020-10-05 23:00:00 16.1 0 Calma 4 Sudeste 0 -- -- 100
2020-10-05 22:00:00 16 0 Calma 6 Sudeste 0 -- -- 100
2020-10-05 21:00:00 16 0 Calma 6 Noroeste 0.2 -- -- 100
2020-10-05 20:00:00 15.9 0 Calma 5 Norte 0 -- -- 99
2020-10-05 19:00:00 16.1 0 Calma 6 Sur 0 -- -- 98
2020-10-05 18:00:00 16.3 2 Nordeste 8 Sur 0.2 -- -- 96
2020-10-05 17:00:00 16.6 2 Sur 11 Sur 0 -- -- 94
2020-10-05 16:00:00 16.4 4 Sur 11 Sudeste 0.4 -- -- 95
2020-10-05 15:00:00 16.7 3 Sudoeste 8 Sur 0 -- -- 92
2020-10-05 14:00:00 16 0 Calma 5 Norte 0 -- -- 95
2020-10-05 13:00:00 15.9 0 Calma 6 Sudeste 0 -- -- 92
2020-10-05 12:00:00 15 4 Este 6 Este 0 -- -- 96
2020-10-05 11:00:00 13.9 2 Sudeste 5 Sudeste 0 -- -- 100
2020-10-05 10:00:00 13.3 2 Sur 6 Oeste 0.8 -- -- 100
2020-10-05 09:00:00 13.3 0 Calma 3 Sur 0.6 -- -- 98
2020-10-05 08:00:00 13.3 0 Calma 5 Sudeste 0 -- -- 96
2020-10-05 07:00:00 13.2 2 Sudeste 5 Sur 0 -- -- 97
2020-10-05 06:00:00 13.3 0 Calma 4 Sur 0 -- -- 97
2020-10-05 05:00:00 13.5 2 Sur 9 Sudoeste 0 -- -- 97
2020-10-05 04:00:00 13.4 2 Sur 4 Sur 0 -- -- 97
2020-10-05 03:00:00 13.7 3 Sudoeste 10 Sudoeste 0 -- -- 95
2020-10-05 02:00:00 13.6 2 Sur 5 Sudoeste 0 -- -- 94
2020-10-05 01:00:00 13.9 2 Sur 8 Sudeste 0 -- -- 92
2020-10-05 00:00:00 13.9 2 Sudeste 10 Oeste 0 -- -- 91
2020-10-04 23:00:00 14 3 Sur 8 Oeste 0 -- -- 89
2020-10-04 22:00:00 13.9 4 Sudoeste 13 Sudoeste 0 -- -- 92
2020-10-04 21:00:00 14.1 3 Sudoeste 9 Sudoeste 0 -- -- 92
2020-10-04 20:00:00 14.2 2 Sudoeste 10 Sudoeste 0 -- -- 89
2020-10-04 19:00:00 14.7 3 Noroeste 9 Nordeste 0 -- -- 86
2020-10-04 18:00:00 14 5 Nordeste 19 Nordeste 0.4 -- -- 91
2020-10-04 17:00:00 14.6 8 Nordeste 21 Nordeste 1 -- -- 88
2020-10-04 16:00:00 15.8 5 Sudoeste 13 Nordeste 0 -- -- 80
2020-10-04 15:00:00 15.3 4 Nordeste 36 Norte 0 -- -- 80
2020-10-04 14:00:00 15.2 5 Sudeste 12 Oeste 0 -- -- 81
2020-10-04 13:00:00 13.9 5 Nordeste 29 Noroeste 0.8 -- -- 91
2020-10-04 12:00:00 15.9 4 Sur 17 Sudoeste 0 -- -- 83
2020-10-04 11:00:00 14.6 4 Este 17 Oeste 0.2 -- -- 87
2020-10-04 10:00:00 14.3 3 Sudoeste 10 Nordeste 0 -- -- 86
2020-10-04 09:00:00 14.1 2 Este 10 Noroeste 0 -- -- 86
2020-10-04 08:00:00 14 4 Norte 13 Norte 0.2 -- -- 89
2020-10-04 07:00:00 14.1 2 Sur 10 Sur 0 -- -- 90
2020-10-04 06:00:00 14 2 Sur 17 Norte 0 -- -- 90
2020-10-04 05:00:00 14.2 4 Este 16 Norte 0 -- -- 96
2020-10-04 04:00:00 13.9 4 Sudeste 21 Oeste 0 -- -- 99
2020-10-04 03:00:00 13.9 6 Sudoeste 18 Oeste 1.6 -- -- 99
2020-10-04 02:00:00 14 3 Sur 7 Sudoeste 0.2 -- -- 96
2020-10-04 01:00:00 14.3 3 Sudoeste 9 Sur 0 -- -- 91
2020-10-04 00:00:00 13.9 4 Sur 13 Sudeste 0 -- -- 89
2020-10-03 23:00:00 13.4 4 Sur 10 Sudeste 0 -- -- 89
2020-10-03 22:00:00 13.6 3 Sur 7 Sur 0 -- -- 89
2020-10-03 21:00:00 13.6 3 Sudoeste 7 Sudoeste 0 -- -- 90
2020-10-03 20:00:00 14.1 4 Sudoeste 12 Oeste 0 -- -- 82
2020-10-03 19:00:00 14.2 4 Sudoeste 13 Sudoeste 0 -- -- 87
2020-10-03 18:00:00 14.2 5 Sudoeste 24 Oeste 0.2 -- -- 93
2020-10-03 17:00:00 17.4 6 Sudoeste 23 Sudoeste 0 -- -- 67
2020-10-03 16:00:00 17.4 8 Sudoeste 22 Sudoeste 0 -- -- 70
2020-10-03 15:00:00 16.8 7 Sudoeste 22 Sudoeste 0 -- -- 72
2020-10-03 14:00:00 17.1 6 Sudoeste 17 Sudoeste 0 -- -- 67
2020-10-03 13:00:00 16.2 5 Sudoeste 15 Oeste 0 -- -- 69
2020-10-03 12:00:00 14.6 2 Sudoeste 5 Noroeste 0 -- -- 86
2020-10-03 11:00:00 14.1 2 Sur 5 Sudoeste 0 -- -- 83
2020-10-03 10:00:00 11.6 0 Calma 5 Sur 0 -- -- 93
2020-10-03 09:00:00 10.9 0 Calma 6 Noroeste 0 -- -- 93
2020-10-03 08:00:00 11.1 3 Noroeste 8 Norte 0 -- -- 92
2020-10-03 07:00:00 10.3 0 Calma 6 Sur 0 -- -- 97
2020-10-03 06:00:00 10.5 2 Sur 6 Sur 0.4 -- -- 94
2020-10-03 05:00:00 11 2 Sur 6 Sudeste 0 -- -- 92
2020-10-03 04:00:00 11.2 0 Calma 3 Sudoeste 0 -- -- 90
2020-10-03 03:00:00 11.7 0 Calma 22 Norte 0 -- -- 90
2020-10-03 02:00:00 12 0 Calma 10 Noroeste 0 -- -- 89
2020-10-03 01:00:00 12.5 2 Norte 9 Noroeste 0 -- -- 84
2020-10-03 00:00:00 12.4 3 Norte 17 Norte 0 -- -- 84
2020-10-02 23:00:00 11.8 2 Norte 8 Noroeste 0 -- -- 89
2020-10-02 22:00:00 11.8 3 Norte 8 Norte 0 -- -- 92
2020-10-02 21:00:00 11.6 3 Sur 6 Sur 0.4 -- -- 94
2020-10-02 20:00:00 12.2 0 Calma 14 Norte 0.2 -- -- 90
2020-10-02 19:00:00 13.3 6 Norte 21 Oeste 1.2 -- -- 81
2020-10-02 18:00:00 13.8 12 Norte 49 Nordeste 0 -- -- 75
2020-10-02 17:00:00 15.6 7 Este 27 Norte 0 -- -- 71
2020-10-02 16:00:00 15.1 9 Norte 34 Norte 0 -- -- 69
2020-10-02 15:00:00 13.6 11 Norte 35 Nordeste 0 -- -- 73
2020-10-02 14:00:00 14.9 21 Norte 46 Norte 0 -- -- 67
2020-10-02 13:00:00 14.7 14 Norte 35 Norte 0.2 -- -- 67
2020-10-02 12:00:00 12.6 10 Norte 29 Norte 0.4 -- -- 81
2020-10-02 11:00:00 11.9 5 Norte 26 Norte 0.2 -- -- 88
2020-10-02 10:00:00 11.4 10 Norte 35 Norte 0.6 -- -- 89
2020-10-02 09:00:00 12.1 13 Norte 31 Norte 0.2 -- -- 88
2020-10-02 08:00:00 13 12 Norte 31 Nordeste 0.4 -- -- 92
2020-10-02 07:00:00 13.4 10 Norte 33 Noroeste 0.4 -- -- 95
2020-10-02 06:00:00 14.1 13 Norte 45 Norte 0.4 -- -- 92
2020-10-02 05:00:00 15.8 6 Sur 19 Oeste 0 -- -- 97
2020-10-02 04:00:00 15.6 7 Sudeste 31 Oeste 3.2 -- -- 100
2020-10-02 03:00:00 16.6 13 Sudoeste 39 Oeste 2 -- -- 100
2020-10-02 02:00:00 16.8 14 Sudoeste 38 Sur 0 -- -- 98
2020-10-02 01:00:00 16.8 12 Sudoeste 42 Sudoeste 0.2 -- -- 100
2020-10-02 00:00:00 16.6 14 Sudoeste 47 Sudoeste 1 -- -- 100
2020-10-01 23:00:00 15.8 12 Sudoeste 33 Sudoeste 1.2 -- -- 100
2020-10-01 22:00:00 15.2 13 Sudoeste 37 Sudoeste 0.8 -- -- 99
2020-10-01 21:00:00 15 8 Sudoeste 24 Oeste 1.4 -- -- 95
2020-10-01 20:00:00 16.5 7 Sudoeste 23 Sur 0 -- -- 83
2020-10-01 19:00:00 16.6 6 Sudoeste 17 Sudoeste 0 -- -- 80
2020-10-01 18:00:00 17.2 5 Sudoeste 23 Sudoeste 0 -- -- 76
2020-10-01 17:00:00 17.4 6 Sudoeste 23 Sudoeste 0 -- -- 77
2020-10-01 16:00:00 18.2 6 Sudoeste 22 Oeste 0 -- -- 75
2020-10-01 15:00:00 19 6 Sudoeste 18 Sudoeste 0 -- -- 68
2020-10-01 14:00:00 18.7 5 Sudoeste 19 Sudoeste 0 -- -- 71
2020-10-01 13:00:00 18 4 Sudoeste 12 Oeste 0 -- -- 69
2020-10-01 12:00:00 16.5 2 Sudoeste 7 Sudeste 0 -- -- 86
2020-10-01 11:00:00 15.2 2 Sur 5 Sudeste 0 -- -- 91
2020-10-01 10:00:00 14.1 0 Calma 6 Sur 0 -- -- 97
2020-10-01 09:00:00 13.2 2 Sur 6 Sur 0 -- -- 97
2020-10-01 08:00:00 13.5 0 Calma 7 Sur 0 -- -- 94
2020-10-01 07:00:00 14.3 2 Nordeste 13 Nordeste 0 -- -- 90
2020-10-01 06:00:00 15.1 2 Nordeste 13 Oeste 0 -- -- 98
2020-10-01 05:00:00 15.3 3 Sur 10 Sudoeste 0 -- -- 99
2020-10-01 04:00:00 15.5 3 Sur 15 Sudoeste 0 -- -- 98
2020-10-01 03:00:00 15.6 4 Sudoeste 15 Sur 0.2 -- -- 98
2020-10-01 02:00:00 15.6 6 Sudoeste 21 Sur 1 -- -- 98
2020-10-01 01:00:00 15.1 4 Sudoeste 15 Sudeste 0.8 -- -- 96
2020-10-01 00:00:00 16.4 3 Sur 13 Sur 0 -- -- 85